Flight Track Log - Related Links

Times and Time Zones

All times are in EDT time to prevent confusion due to time zone crossing. See the SWA1366 flight status page for this flight to view local times or setup timezone preferences in your user account.

Time Position Orientation Groundspeed Altitude Reporting Facility
EDT Latitude Longitude Course Direction KTS MPH feet Rate Location/Type
Fri 01:54:20 PM 33.4333 -111.9833 104° East 186 214 2,000  Level Phoenix TRACON
Fri 01:56:29 PM 33.4044 -111.8431 104° East 246 283 6,900 2,344 Climbing Albuquerque Center
Fri 01:57:32 PM 33.3408 -111.8153 160° South 255 293 9,500 2,064 Climbing Albuquerque Center
Fri 01:58:34 PM 33.3203 -111.8933 253° West 277 319 11,200 2,468 Climbing Albuquerque Center
Fri 01:59:36 PM 33.3389 -112.0125 281° West 300 345 14,600 2,710 Climbing Albuquerque Center
Fri 02:00:38 PM 33.3531 -112.1169 279° West 318 366 16,800 2,226 Climbing Albuquerque Center
Fri 02:01:40 PM 33.3683 -112.2239 280° West 322 371 19,200 2,032 Climbing Albuquerque Center
Fri 02:02:42 PM 33.3833 -112.3350 279° West 335 386 21,000 2,032 Climbing Albuquerque Center
Fri 02:03:44 PM 33.4006 -112.4483 280° West 343 395 23,400 1,887 Climbing Albuquerque Center
Fri 02:04:46 PM 33.4167 -112.5606 280° West 343 395 24,900 1,597 Climbing Albuquerque Center
Fri 02:05:48 PM 33.4361 -112.7006 279° West 350 403 26,700 1,500 Climbing Albuquerque Center
Fri 02:06:50 PM 33.4517 -112.8178 279° West 353 406 28,000 1,210 Climbing Albuquerque Center
Fri 02:07:52 PM 33.4750 -112.9347 283° West 357 411 29,200 1,016 Climbing Albuquerque Center
Fri 02:08:54 PM 33.4981 -113.0569 283° West 371 427 30,100 912 Climbing Albuquerque Center
Fri 02:09:57 PM 33.5219 -113.1794 283° West 377 434 31,100 912 Climbing Albuquerque Center
Fri 02:10:59 PM 33.5453 -113.3044 283° West 380 437 32,000 1,113 Climbing Albuquerque Center
Fri 02:12:01 PM 33.5739 -113.4581 283° West 391 450 33,400 968 Climbing Albuquerque Center
Fri 02:13:03 PM 33.5964 -113.5786 283° West 381 438 34,000 290 Climbing Albuquerque Center
Fri 02:14:05 PM 33.6208 -113.7033 283° West 376 433 34,000  Level Albuquerque Center
Fri 02:15:07 PM 33.6428 -113.8244 282° West 375 432 34,000  Level Albuquerque Center
Fri 02:16:10 PM 33.6642 -113.9467 282° West 375 432 34,000  Level Albuquerque Center
Fri 02:17:11 PM 33.6872 -114.0669 283° West 374 430 34,000  Level Albuquerque Center
Fri 02:18:04 PM 33.7097 -114.1844 283° West 372 428 34,000  Level Los Angeles Center
Fri 02:19:06 PM 33.7303 -114.3050 282° West 372 428 34,000  Level Los Angeles Center
Fri 02:20:08 PM 33.7522 -114.4258 282° West 372 428 34,000  Level Los Angeles Center
Fri 02:21:10 PM 33.7753 -114.5683 281° West 368 423 34,000  Level Los Angeles Center
Fri 02:22:12 PM 33.7831 -114.6925 274° West 372 428 34,000  Level Los Angeles Center
Fri 02:23:15 PM 33.7878 -114.8158 273° West 375 432 34,000  Level Los Angeles Center
Fri 02:24:17 PM 33.7964 -114.9417 275° West 375 432 34,000  Level Los Angeles Center
Fri 02:25:19 PM 33.8033 -115.0658 274° West 375 432 34,000  Level Los Angeles Center
Fri 02:26:21 PM 33.8306 -115.1900 285° West 381 438 34,000  Level Los Angeles Center
Fri 02:27:23 PM 33.8628 -115.3369 285° West 381 438 34,000  Level Los Angeles Center
Fri 02:28:26 PM 33.8903 -115.4603 285° West 382 440 34,000  Level Los Angeles Center
Fri 02:29:28 PM 33.9167 -115.5842 284° West 382 440 34,000  Level Los Angeles Center
Fri 02:30:30 PM 33.9436 -115.7092 285° West 383 441 34,000  Level Los Angeles Center
Fri 02:31:32 PM 33.9711 -115.8336 285° West 384 442 34,000 -48 Level Los Angeles Center
Fri 02:32:34 PM 34.0022 -115.9825 284° West 384 442 33,900  Descending Los Angeles Center
Fri 02:33:37 PM 34.0294 -116.1058 285° West 384 442 34,000 48 Climbing Los Angeles Center
Fri 02:34:39 PM 34.0561 -116.2281 285° West 381 438 34,000  Level Los Angeles Center
Fri 02:35:41 PM 34.0817 -116.3492 284° West 379 436 34,000 -48 Level Los Angeles Center
Fri 02:36:43 PM 34.1069 -116.4703 284° West 376 433 33,900  Descending Los Angeles Center
Fri 02:37:45 PM 34.1369 -116.6153 284° West 378 435 34,000 48 Climbing Los Angeles Center
Fri 02:38:48 PM 34.1625 -116.7375 284° West 378 435 34,000  Level Los Angeles Center
Fri 02:39:50 PM 34.1881 -116.8600 284° West 377 434 34,000  Level Los Angeles Center
Fri 02:40:52 PM 34.2125 -116.9828 284° West 377 434 34,000  Level Los Angeles Center
Fri 02:41:54 PM 34.2381 -117.1050 284° West 377 434 34,000  Level Los Angeles Center
Fri 02:42:56 PM 34.2675 -117.2464 284° West 376 433 34,000  Level Los Angeles Center
Fri 02:43:58 PM 34.2914 -117.3653 284° West 373 429 34,000  Level Los Angeles Center
Fri 02:45:01 PM 34.3147 -117.4847 283° West 372 428 34,000  Level Los Angeles Center
Fri 02:46:03 PM 34.3389 -117.6050 284° West 369 425 34,000  Level Los Angeles Center
Fri 02:47:05 PM 34.3675 -117.7481 284° West 369 425 34,000  Level Los Angeles Center
Fri 02:48:07 PM 34.3864 -117.8492 283° West 359 413 34,000  Level Los Angeles Center
Fri 02:49:09 PM 34.4092 -117.9631 284° West 352 405 34,000  Level Los Angeles Center
Fri 02:50:12 PM 34.4614 -118.0958 296° West 371 427 34,000  Level Los Angeles Center
Fri 02:51:14 PM 34.5147 -118.1917 304° West 375 432 34,000  Level Los Angeles Center
Fri 02:52:16 PM 34.5831 -118.3153 304° West 373 429 34,000 -290 Level Los Angeles Center
Fri 02:53:18 PM 34.6414 -118.4211 304° West 374 430 33,400 -774 Descending Los Angeles Center
Fri 02:54:20 PM 34.7033 -118.5311 304° West 374 430 32,400 -672 Descending Los Angeles Center
Fri 02:55:23 PM 34.7578 -118.6300 304° West 374 430 32,000 -192 Descending Los Angeles Center
Fri 02:56:25 PM 34.8153 -118.7342 304° West 374 430 32,000  Level Los Angeles Center
Fri 02:57:27 PM 34.8822 -118.8572 304° West 368 423 32,000  Level Los Angeles Center
Fri 02:58:29 PM 34.9278 -118.9403 304° West 344 396 32,000  Level Los Angeles Center
Fri 02:59:31 PM 34.9911 -119.0575 303° West 345 397 32,000  Level Los Angeles Center
Fri 03:00:34 PM 35.0472 -119.1581 304° West 354 407 32,000  Level Los Angeles Center
Fri 03:01:36 PM 35.1031 -119.2600 304° West 357 411 32,000  Level Los Angeles Center
Fri 03:02:38 PM 35.1572 -119.3594 304° West 356 410 32,000  Level Los Angeles Center
Fri 03:03:40 PM 35.2117 -119.4603 303° West 355 409 32,000  Level Los Angeles Center
Fri 03:04:42 PM 35.2778 -119.5806 304° West 355 409 32,000  Level Los Angeles Center
Fri 03:05:45 PM 35.3311 -119.6806 303° West 354 407 32,000  Level Los Angeles Center
Fri 03:06:47 PM 35.3839 -119.7808 303° West 353 406 32,000  Level Los Angeles Center
Fri 03:07:49 PM 35.4361 -119.8797 303° West 351 404 32,000  Level Los Angeles Center
Fri 03:08:51 PM 35.4886 -119.9786 303° West 350 403 32,000  Level Los Angeles Center
Fri 03:09:53 PM 35.5508 -120.0956 303° West 349 402 32,000  Level Los Angeles Center
Fri 03:10:55 PM 35.6036 -120.1953 303° West 345 397 32,000  Level Los Angeles Center
Fri 03:11:30 PM 35.6333 -120.2506 303° West 347 399 32,000  Level Oakland Center
Fri 03:12:31 PM 35.6856 -120.3483 303° West 346 398 32,000  Level Oakland Center
Fri 03:13:33 PM 35.7547 -120.4436 312° West 370 426 32,000  Level Oakland Center
Fri 03:14:34 PM 35.8228 -120.5364 312° West 371 427 32,000  Level Oakland Center
Fri 03:15:36 PM 35.8914 -120.6322 311° West 371 427 32,000  Level Oakland Center
Fri 03:16:37 PM 35.9614 -120.7264 313° West 371 427 32,000 -49 Level Oakland Center
Fri 03:17:39 PM 36.0439 -120.8411 312° West 373 429 31,900  Descending Oakland Center
Fri 03:18:40 PM 36.1106 -120.9358 311° West 369 425 32,000 -344 Climbing Oakland Center
Fri 03:19:41 PM 36.1778 -121.0294 312° West 367 422 31,200 -1,951 Descending Oakland Center
Fri 03:20:43 PM 36.2458 -121.1222 312° West 365 420 28,000 -2,878 Descending Oakland Center
Fri 03:21:44 PM 36.3142 -121.2208 311° West 373 429 25,300 -2,488 Descending Oakland Center
Fri 03:22:46 PM 36.3811 -121.3136 312° West 367 422 22,900 -2,488 Descending Oakland Center
Fri 03:23:47 PM 36.4531 -121.4114 312° West 378 435 20,200 -2,705 Descending Oakland Center
Fri 03:24:48 PM 36.5511 -121.4722 334° Northwest 402 463 17,400 -2,829 Descending Oakland Center
Fri 03:25:50 PM 36.6861 -121.4975 351° North 407 468 14,400 -2,683 Descending Oakland Center
Fri 03:26:51 PM 36.7906 -121.5161 352° North 385 443 11,900 -2,066 Descending Oakland Center
Fri 03:27:52 PM 36.8883 -121.5450 347° North 361 415 10,200 -1,366 Descending Oakland Center
Fri 03:28:54 PM 36.9569 -121.5903 332° Northwest 288 331 9,100 -1,610 Descending Oakland Center
Fri 03:29:55 PM 37.0228 -121.6322 333° Northwest 270 311 6,900 -2,000 Descending Oakland Center
Fri 03:30:57 PM 37.0911 -121.6731 335° Northwest 270 311 5,000 -927 Descending Oakland Center
Fri 03:31:58 PM 37.1511 -121.7075 335° Northwest 250 288 5,000 -492 Level Oakland Center
Fri 03:32:59 PM 37.2003 -121.7522 324° Northwest 230 265 4,000 -976 Descending Oakland Center
Fri 03:34:01 PM 37.2450 -121.8031 318° Northwest 222 255 3,000 -976 Descending Oakland Center
Fri 03:35:02 PM 37.2819 -121.8447 318° Northwest 194 223 2,000 -1,033 Descending Oakland Center
Fri 03:36:03 PM 37.3258 -121.8922 319° Northwest 181 208 900 -927 Descending Oakland Center
Fri 03:37:05 PM 37.3561 -121.9256 319° Northwest 160 184 100 -774 Descending Oakland Center
Fri 03:39:00 PM 37.3500 -121.9167 North  Level FlightAware Approximate
Fri 03:46:00 PM 37.3627 -121.9291 North  Level Estimated

Login

Don't have an account? Register now (free) for customized features, flight alerts, and more!